Gwinner Roger Melroe Field


Codes: KGWR/
Name: Gwinner Roger Melroe Field
City: Gwinner
Country: United States
Elevation: 1266 ft.

Photos at Gwinner Roger Melroe Field


   Photos courtesy of SpottingLog. You can add your own sightings and photos by signing up for a free trial today.



No photos found.

Weather at Gwinner Roger Melroe Field


Time (UTC)DescriptionTempratureWindCloud coverageVisibilityPressureHumidity
16-Jun-2024 09:00Light Rain19°C0 mph, SW100%2220m999hPa100%
16-Jun-2024 12:00Light Rain19°C4 mph, SE91%10000m999hPa99%
16-Jun-2024 15:00Broken Clouds20°C16 mph, NW84%10000m1000hPa92%
16-Jun-2024 18:00Broken Clouds23°C18 mph, NW82%10000m1004hPa58%
16-Jun-2024 21:00Overcast Clouds22°C13 mph, NW100%10000m1006hPa43%
17-Jun-2024 00:00Overcast Clouds21°C11 mph, NW100%10000m1007hPa54%
17-Jun-2024 03:00Scattered Clouds16°C4 mph, SW48%10000m1009hPa57%
17-Jun-2024 06:00Broken Clouds14°C7 mph, W64%10000m1010hPa57%
17-Jun-2024 09:00Overcast Clouds15°C0 mph, NE98%10000m1011hPa55%
17-Jun-2024 12:00Light Rain13°C7 mph, SE99%10000m1010hPa69%
17-Jun-2024 15:00Light Rain14°C9 mph, SE100%10000m1011hPa84%
17-Jun-2024 18:00Light Rain13°C9 mph, E100%10000m1010hPa90%
17-Jun-2024 21:00Light Rain14°C11 mph, E100%10000m1008hPa90%
18-Jun-2024 00:00Light Rain14°C13 mph, E100%10000m1005hPa96%
18-Jun-2024 03:00Light Rain14°C13 mph, E100%7099m1003hPa98%
18-Jun-2024 06:00Moderate Rain15°C13 mph, SE100%1926m1000hPa98%
18-Jun-2024 09:00Moderate Rain17°C9 mph, SE100%2007m997hPa99%
18-Jun-2024 12:00Light Rain19°C11 mph, SE100%3168m995hPa98%
18-Jun-2024 15:00Light Rain25°C16 mph, SW49%10000m995hPa80%
18-Jun-2024 18:00Light Rain17°C16 mph, NW69%10000m1000hPa90%
18-Jun-2024 21:00Overcast Clouds18°C13 mph, NW100%10000m1005hPa78%
19-Jun-2024 00:00Overcast Clouds16°C13 mph, NW100%10000m1009hPa80%
19-Jun-2024 03:00Overcast Clouds14°C11 mph, NW100%10000m1013hPa77%
19-Jun-2024 06:00Overcast Clouds13°C11 mph, NW100%10000m1016hPa83%
19-Jun-2024 09:00Overcast Clouds12°C9 mph, NW95%10000m1020hPa85%
19-Jun-2024 12:00Overcast Clouds10°C7 mph, NW97%10000m1023hPa90%
19-Jun-2024 15:00Overcast Clouds16°C7 mph, NW88%10000m1024hPa64%
19-Jun-2024 18:00Scattered Clouds19°C4 mph, NE47%10000m1024hPa50%
19-Jun-2024 21:00Broken Clouds19°C7 mph, E66%10000m1024hPa51%
20-Jun-2024 00:00Broken Clouds18°C7 mph, SE83%10000m1024hPa68%
20-Jun-2024 03:00Broken Clouds14°C4 mph, SE81%10000m1026hPa82%
20-Jun-2024 06:00Broken Clouds13°C4 mph, E60%10000m1027hPa83%
20-Jun-2024 09:00Broken Clouds12°C7 mph, E51%10000m1027hPa85%
20-Jun-2024 12:00Scattered Clouds12°C7 mph, E27%10000m1027hPa87%
20-Jun-2024 15:00Scattered Clouds18°C11 mph, SE31%10000m1026hPa71%
20-Jun-2024 18:00Broken Clouds18°C13 mph, SE53%10000m1026hPa78%
20-Jun-2024 21:00Overcast Clouds15°C9 mph, SE100%10000m1024hPa90%
21-Jun-2024 00:00Light Rain15°C9 mph, E100%10000m1022hPa92%
21-Jun-2024 03:00Light Rain14°C4 mph, SE100%10000m1022hPa97%
21-Jun-2024 06:00Light Rain16°C2 mph, N100%0m1021hPa99%